createdAt,value
2022-08-17T00:02:26.755Z,7.03
2022-08-17T00:04:55.204Z,8.02
2022-08-17T00:07:23.043Z,7.47
2022-08-17T00:09:50.247Z,7.80
2022-08-17T00:12:40.511Z,7.55
2022-08-17T00:15:06.277Z,7.25
2022-08-17T00:17:37.352Z,7.85
2022-08-17T00:20:05.009Z,7.75
2022-08-17T00:22:36.410Z,7.45
2022-08-17T00:27:34.211Z,8.45
2022-08-17T00:30:01.095Z,7.97
2022-08-17T00:33:13.692Z,8.20
2022-08-17T00:35:17.776Z,7.20
2022-08-17T00:37:44.712Z,7.40
2022-08-17T00:40:14.676Z,7.95
2022-08-17T00:42:43.019Z,8.05
2022-08-17T00:45:11.897Z,7.88
2022-08-17T00:47:39.001Z,6.90
2022-08-17T00:50:09.631Z,7.63
2022-08-17T00:52:43.486Z,7.63
2022-08-17T00:55:11.494Z,7.05
2022-08-17T00:57:46.062Z,7.30
2022-08-17T01:00:19.644Z,7.78
2022-08-17T01:02:48.171Z,7.57
2022-08-17T01:05:20.019Z,7.50
2022-08-17T01:07:51.036Z,7.45
2022-08-17T01:10:58.384Z,7.75
2022-08-17T01:13:24.223Z,7.50
2022-08-17T01:15:57.431Z,7.88
2022-08-17T01:18:26.387Z,7.80
2022-08-17T01:20:55.923Z,7.57
2022-08-17T01:23:25.225Z,7.20
2022-08-17T01:25:57.225Z,7.35
2022-08-17T01:28:52.832Z,7.70
2022-08-17T01:31:14.302Z,7.75
2022-08-17T01:33:41.271Z,7.50
2022-08-17T01:36:08.963Z,7.57
2022-08-17T01:38:37.975Z,7.60
2022-08-17T01:41:13.312Z,8.27
2022-08-17T01:43:45.763Z,7.20
2022-08-17T01:46:21.155Z,7.50
2022-08-17T01:48:48.533Z,7.88
2022-08-17T01:51:16.189Z,7.45
2022-08-17T01:53:49.078Z,7.57
2022-08-17T01:56:19.633Z,7.53
2022-08-17T01:58:47.199Z,7.85
2022-08-17T02:01:17.251Z,7.93
2022-08-17T02:03:53.142Z,7.82
2022-08-17T02:06:27.802Z,7.88
2022-08-17T02:09:01.922Z,7.57
2022-08-17T02:11:33.143Z,7.57
2022-08-17T02:14:02.753Z,7.30
2022-08-17T02:16:36.664Z,7.93
2022-08-17T02:19:06.529Z,7.38
2022-08-17T02:21:34.141Z,8.20
2022-08-17T02:24:01.373Z,7.97
2022-08-17T02:26:28.334Z,8.05
2022-08-17T02:28:55.812Z,7.32
2022-08-17T02:31:22.768Z,8.20
2022-08-17T02:33:56.840Z,7.78
2022-08-17T02:36:30.496Z,7.60
2022-08-17T02:38:58.929Z,7.55
2022-08-17T02:41:25.907Z,7.78
2022-08-17T02:43:53.657Z,7.80
2022-08-17T02:46:20.646Z,7.75
2022-08-17T02:48:47.631Z,7.43
2022-08-17T02:51:14.815Z,7.72
2022-08-17T02:53:41.726Z,8.00
2022-08-17T02:56:08.694Z,7.43
2022-08-17T02:58:36.241Z,7.78
2022-08-17T03:01:07.888Z,7.95
2022-08-17T03:03:36.750Z,8.13
2022-08-17T03:06:05.318Z,7.80
2022-08-17T03:08:32.245Z,7.55
2022-08-17T03:10:59.188Z,8.18
2022-08-17T03:13:27.304Z,7.65
2022-08-17T03:15:54.321Z,7.38
2022-08-17T03:18:25.295Z,7.53
2022-08-17T03:20:58.946Z,7.00
2022-08-17T03:23:27.196Z,7.88
2022-08-17T03:25:55.316Z,8.60
2022-08-17T03:28:23.511Z,8.35
2022-08-17T03:30:51.628Z,8.35
2022-08-17T03:33:20.883Z,7.90
2022-08-17T03:35:48.648Z,7.82
2022-08-17T03:38:17.431Z,9.32
2022-08-17T03:40:57.287Z,8.85
2022-08-17T03:43:38.675Z,8.27
2022-08-17T03:46:28.508Z,8.97
2022-08-17T03:49:22.110Z,9.70
2022-08-17T03:52:07.448Z,8.65
2022-08-17T03:54:52.705Z,8.00
2022-08-17T03:57:19.702Z,9.18
2022-08-17T03:59:46.887Z,9.00
2022-08-17T04:02:19.875Z,8.15
2022-08-17T04:04:47.278Z,8.85
2022-08-17T04:07:14.369Z,8.57
2022-08-17T04:09:43.030Z,8.25
2022-08-17T04:12:10.180Z,8.32
2022-08-17T04:14:53.224Z,8.30
2022-08-17T04:17:27.232Z,8.65
2022-08-17T04:19:55.562Z,8.77
2022-08-17T04:22:33.292Z,8.35
2022-08-17T04:25:05.253Z,7.43
2022-08-17T04:27:32.691Z,7.50
2022-08-17T04:29:59.891Z,7.93
2022-08-17T04:33:04.552Z,8.18
2022-08-17T04:35:23.300Z,8.40
2022-08-17T04:37:51.192Z,6.90
2022-08-17T04:40:38.217Z,7.70
2022-08-17T04:43:18.825Z,7.53
2022-08-17T04:45:56.120Z,7.43
2022-08-17T04:48:36.690Z,7.20
2022-08-17T04:51:14.645Z,7.38
2022-08-17T04:53:45.307Z,7.32
2022-08-17T04:56:19.132Z,7.78
2022-08-17T04:58:48.420Z,7.32
2022-08-17T05:03:50.651Z,7.88
2022-08-17T05:06:17.576Z,8.13
2022-08-17T05:08:44.495Z,7.53
2022-08-17T05:11:11.470Z,8.15
2022-08-17T05:13:38.427Z,7.85
2022-08-17T05:16:06.057Z,7.45
2022-08-17T05:18:33.228Z,7.78
2022-08-17T05:21:00.237Z,8.38
2022-08-17T05:23:35.532Z,7.85
2022-08-17T05:26:11.618Z,7.97
2022-08-17T05:28:52.843Z,8.02
2022-08-17T05:31:21.419Z,8.55
2022-08-17T05:33:49.584Z,8.27
2022-08-17T05:36:42.300Z,7.97
2022-08-17T05:39:04.066Z,7.63
2022-08-17T05:41:31.003Z,7.70
2022-08-17T05:43:57.920Z,8.40
2022-08-17T05:46:31.374Z,8.60
2022-08-17T05:49:03.770Z,8.50
2022-08-17T05:51:43.019Z,8.60
2022-08-17T05:54:30.179Z,7.97
2022-08-17T05:56:57.044Z,8.32
2022-08-17T05:59:37.849Z,8.10
2022-08-17T06:02:47.051Z,8.82
2022-08-17T06:05:27.120Z,8.40
2022-08-17T06:08:09.992Z,7.95
2022-08-17T06:11:07.582Z,8.48
2022-08-17T06:14:06.754Z,8.75
2022-08-17T06:16:44.414Z,9.10
2022-08-17T06:19:25.645Z,8.40
2022-08-17T06:21:54.974Z,8.90
2022-08-17T06:24:36.890Z,8.60
2022-08-17T06:27:27.672Z,8.85
2022-08-17T06:30:17.891Z,8.93
2022-08-17T06:32:48.357Z,8.73
2022-08-17T06:35:31.800Z,8.25
2022-08-17T06:38:09.527Z,9.45
2022-08-17T06:41:26.874Z,9.10
2022-08-17T06:44:11.681Z,9.05
2022-08-17T06:47:28.595Z,8.68
2022-08-17T06:50:15.601Z,10.00
2022-08-17T06:52:59.878Z,8.82
2022-08-17T06:55:38.039Z,8.85
2022-08-17T06:58:15.923Z,9.13
2022-08-17T07:00:47.187Z,9.30
2022-08-17T07:06:05.650Z,8.68
2022-08-17T07:08:45.225Z,8.40
2022-08-17T07:11:16.385Z,8.43
2022-08-17T07:13:55.397Z,8.73
2022-08-17T07:16:36.373Z,9.02
2022-08-17T07:19:06.114Z,8.30
2022-08-17T07:21:57.620Z,9.15
2022-08-17T07:27:21.429Z,8.05
2022-08-17T07:29:53.819Z,8.63
2022-08-17T07:32:26.449Z,8.10
2022-08-17T07:35:04.678Z,7.88
2022-08-17T07:37:33.410Z,8.77
2022-08-17T07:40:16.957Z,7.75
2022-08-17T07:43:09.365Z,7.57
2022-08-17T07:46:35.288Z,7.90
2022-08-17T07:49:08.140Z,7.45
2022-08-17T07:51:52.802Z,7.45
2022-08-17T07:54:24.141Z,7.07
2022-08-17T07:56:52.592Z,7.45
2022-08-17T07:59:27.187Z,7.55
2022-08-17T08:02:07.193Z,6.72
2022-08-17T08:04:59.599Z,7.47
2022-08-17T08:07:34.869Z,6.88
2022-08-17T08:10:23.255Z,6.70
2022-08-17T08:13:12.298Z,6.82
2022-08-17T08:15:53.474Z,6.45
2022-08-17T08:18:54.862Z,7.10
2022-08-17T08:21:42.716Z,6.32
2022-08-17T08:24:18.752Z,6.85
2022-08-17T08:27:01.019Z,6.95
2022-08-17T08:29:40.590Z,7.30
2022-08-17T08:32:22.586Z,7.18
2022-08-17T08:35:13.279Z,6.72
2022-08-17T08:37:49.977Z,6.82
2022-08-17T08:40:56.441Z,6.45
2022-08-17T08:43:52.807Z,6.47
2022-08-17T08:46:29.046Z,6.90
2022-08-17T08:49:18.925Z,6.72
2022-08-17T08:51:58.071Z,7.30
2022-08-17T08:54:55.184Z,7.13
2022-08-17T08:57:34.628Z,6.55
2022-08-17T09:00:21.486Z,7.38
2022-08-17T09:03:17.469Z,7.63
2022-08-17T09:05:48.404Z,6.57
2022-08-17T09:08:52.091Z,6.00
2022-08-17T09:12:02.963Z,6.10
2022-08-17T09:14:46.442Z,6.88
2022-08-17T09:17:16.418Z,7.10
2022-08-17T09:20:00.021Z,6.03
2022-08-17T09:22:38.569Z,6.70
2022-08-17T09:25:16.156Z,6.10
2022-08-17T09:27:53.676Z,5.75
2022-08-17T09:30:22.003Z,6.38
2022-08-17T09:32:56.438Z,6.03
2022-08-17T09:35:42.432Z,5.60
2022-08-17T09:38:32.172Z,5.60
2022-08-17T09:41:28.250Z,5.50
2022-08-17T09:44:14.016Z,5.10
2022-08-17T09:47:11.279Z,5.10
2022-08-17T09:49:56.825Z,4.95
2022-08-17T09:52:27.507Z,5.63
2022-08-17T09:54:56.925Z,5.72
2022-08-17T09:57:32.319Z,5.65
2022-08-17T10:00:16.575Z,5.22
2022-08-17T10:03:10.145Z,5.45
2022-08-17T10:05:48.538Z,5.35
2022-08-17T10:08:41.650Z,4.70
2022-08-17T10:11:16.943Z,4.95
2022-08-17T10:13:59.524Z,4.85
2022-08-17T10:16:32.397Z,4.75
2022-08-17T10:19:21.358Z,4.75
2022-08-17T10:22:14.999Z,4.80
2022-08-17T10:25:22.793Z,5.07
2022-08-17T10:28:12.952Z,5.22
2022-08-17T10:30:51.740Z,4.40
2022-08-17T10:33:27.351Z,4.93
2022-08-17T10:36:01.405Z,4.75
2022-08-17T10:38:57.247Z,4.80
2022-08-17T10:41:30.173Z,4.45
2022-08-17T10:44:37.906Z,4.45
2022-08-17T10:47:15.041Z,4.68
2022-08-17T10:49:54.074Z,4.82
2022-08-17T10:52:24.819Z,5.00
2022-08-17T10:54:58.558Z,4.80
2022-08-17T10:57:36.515Z,4.80
2022-08-17T11:00:14.880Z,4.53
2022-08-17T11:02:54.679Z,4.70
2022-08-17T11:05:33.657Z,5.15
2022-08-17T11:08:22.407Z,4.78
2022-08-17T11:10:58.433Z,4.78
2022-08-17T11:13:34.339Z,5.13
2022-08-17T11:16:24.995Z,4.70
2022-08-17T11:19:10.446Z,5.18
2022-08-17T11:21:50.946Z,5.25
2022-08-17T11:24:33.696Z,4.80
2022-08-17T11:27:26.697Z,4.75
2022-08-17T11:30:01.477Z,4.50
2022-08-17T11:32:47.350Z,4.50
2022-08-17T11:35:31.487Z,3.95
2022-08-17T11:38:16.445Z,4.20
2022-08-17T11:41:03.529Z,4.25
2022-08-17T11:43:55.686Z,3.90
2022-08-17T11:47:10.488Z,3.70
2022-08-17T11:50:30.598Z,4.03
2022-08-17T11:52:57.588Z,3.65
2022-08-17T11:55:37.516Z,4.20
2022-08-17T11:58:26.235Z,4.00
2022-08-17T12:00:59.695Z,3.80
2022-08-17T12:03:33.035Z,3.88
2022-08-17T12:06:11.142Z,4.28
2022-08-17T12:08:45.479Z,3.80
2022-08-17T12:11:56.305Z,4.47
2022-08-17T12:14:10.056Z,3.97
2022-08-17T12:16:42.717Z,3.75
2022-08-17T12:19:19.442Z,3.88
2022-08-17T12:21:54.282Z,3.60
2022-08-17T12:24:45.411Z,3.88
2022-08-17T12:27:19.522Z,3.95
2022-08-17T12:30:12.175Z,3.67
2022-08-17T12:32:40.695Z,3.97
2022-08-17T12:35:21.662Z,4.20
2022-08-17T12:37:50.546Z,4.22
2022-08-17T12:40:22.681Z,4.03
2022-08-17T12:43:06.692Z,4.32
2022-08-17T12:45:39.298Z,4.05
2022-08-17T12:48:10.200Z,3.85
2022-08-17T12:50:45.932Z,3.95
2022-08-17T12:53:22.384Z,4.20
2022-08-17T12:55:51.511Z,4.10
2022-08-17T12:58:22.205Z,4.10
2022-08-17T13:00:56.881Z,4.18
2022-08-17T13:03:26.509Z,4.43
2022-08-17T13:05:56.432Z,4.03
2022-08-17T13:08:29.415Z,4.03
2022-08-17T13:11:09.865Z,3.97
2022-08-17T13:16:12.064Z,4.57
2022-08-17T13:18:52.959Z,4.35
2022-08-17T13:21:27.675Z,4.03
2022-08-17T13:24:07.781Z,3.90
2022-08-17T13:26:41.466Z,4.35
2022-08-17T13:29:28.398Z,4.28
2022-08-17T13:32:13.205Z,4.32
2022-08-17T13:35:08.974Z,4.18
2022-08-17T13:37:35.809Z,3.72
2022-08-17T13:40:08.312Z,3.90
2022-08-17T13:42:50.570Z,3.80
2022-08-17T13:45:36.562Z,4.20
2022-08-17T13:48:24.367Z,4.03
2022-08-17T13:50:57.236Z,3.92
2022-08-17T13:53:31.195Z,4.18
2022-08-17T13:56:07.399Z,4.35
2022-08-17T13:58:56.530Z,3.90
2022-08-17T14:01:53.533Z,4.03
2022-08-17T14:04:24.701Z,4.05
2022-08-17T14:07:12.908Z,3.97
2022-08-17T14:09:58.443Z,3.60
2022-08-17T14:12:28.178Z,3.42
2022-08-17T14:14:56.537Z,4.13
2022-08-17T14:17:25.086Z,3.75
2022-08-17T14:19:52.774Z,3.47
2022-08-17T14:22:25.738Z,3.58
2022-08-17T14:24:53.150Z,3.70
2022-08-17T14:27:20.766Z,3.65
2022-08-17T14:29:48.848Z,3.53
2022-08-17T14:32:31.547Z,3.85
2022-08-17T14:34:59.891Z,3.55
2022-08-17T14:37:28.898Z,3.53
2022-08-17T14:39:58.041Z,4.40
2022-08-17T14:42:27.815Z,3.60
2022-08-17T14:44:56.095Z,3.90
2022-08-17T14:47:23.247Z,3.60
2022-08-17T14:49:50.222Z,3.88
2022-08-17T14:52:21.634Z,4.03
2022-08-17T14:54:51.337Z,3.95
2022-08-17T14:57:33.237Z,3.60
2022-08-17T15:00:02.399Z,3.70
2022-08-17T15:02:30.873Z,3.72
2022-08-17T15:05:06.129Z,3.72
2022-08-17T15:07:38.838Z,3.80
2022-08-17T15:10:06.283Z,3.58
2022-08-17T15:12:34.478Z,3.97
2022-08-17T15:15:05.079Z,4.03
2022-08-17T15:17:43.758Z,4.00
2022-08-17T15:20:18.217Z,4.18
2022-08-17T15:22:49.468Z,3.58
2022-08-17T15:25:17.443Z,3.60
2022-08-17T15:27:44.496Z,3.88
2022-08-17T15:30:12.760Z,4.70
2022-08-17T15:32:51.377Z,3.03
2022-08-17T15:35:28.745Z,2.95
2022-08-17T15:38:09.870Z,3.08
2022-08-17T15:40:42.155Z,3.20
2022-08-17T15:43:11.781Z,3.72
2022-08-17T15:45:39.632Z,3.40
2022-08-17T15:48:07.069Z,3.67
2022-08-17T15:50:34.117Z,3.30
2022-08-17T15:53:02.365Z,3.35
2022-08-17T15:55:31.482Z,3.58
2022-08-17T15:57:59.190Z,3.55
2022-08-17T16:00:28.461Z,3.67
2022-08-17T16:03:45.757Z,3.72
2022-08-17T16:05:43.401Z,3.50
2022-08-17T16:08:11.202Z,3.15
2022-08-17T16:10:39.039Z,3.67
2022-08-17T16:13:06.109Z,3.40
2022-08-17T16:15:47.787Z,3.28
2022-08-17T16:18:31.096Z,4.00
2022-08-17T16:21:23.920Z,3.97
2022-08-17T16:23:56.264Z,4.38
2022-08-17T16:26:24.228Z,4.50
2022-08-17T16:28:52.193Z,3.80
2022-08-17T16:31:19.199Z,3.88
2022-08-17T16:34:01.027Z,3.70
2022-08-17T16:36:35.608Z,3.90
2022-08-17T16:39:02.550Z,3.75
2022-08-17T16:41:47.536Z,4.75
2022-08-17T16:44:19.578Z,4.18
2022-08-17T16:46:48.080Z,3.78
2022-08-17T16:49:35.795Z,3.80
2022-08-17T16:52:06.411Z,3.45
2022-08-17T16:54:33.511Z,3.97
2022-08-17T16:57:00.494Z,3.83
2022-08-17T16:59:31.063Z,4.25
2022-08-17T17:02:12.997Z,3.42
2022-08-17T17:04:57.878Z,3.42
2022-08-17T17:07:35.966Z,3.65
2022-08-17T17:10:10.589Z,3.88
2022-08-17T17:13:03.014Z,3.95
2022-08-17T17:15:30.373Z,4.07
2022-08-17T17:18:06.810Z,4.68
2022-08-17T17:20:53.934Z,4.13
2022-08-17T17:23:50.027Z,3.88
2022-08-17T17:26:17.111Z,4.20
2022-08-17T17:29:05.951Z,4.20
2022-08-17T17:31:39.572Z,3.40
2022-08-17T17:34:10.736Z,4.15
2022-08-17T17:36:54.078Z,4.05
2022-08-17T17:39:49.991Z,3.88
2022-08-17T17:42:21.739Z,3.97
2022-08-17T17:45:18.545Z,4.63
2022-08-17T17:47:45.776Z,4.30
2022-08-17T17:50:12.867Z,4.38
2022-08-17T17:52:52.087Z,4.38
2022-08-17T17:56:05.399Z,3.95
2022-08-17T17:59:16.769Z,4.40
2022-08-17T18:01:44.033Z,4.03
2022-08-17T18:04:36.502Z,4.43
2022-08-17T18:07:25.677Z,4.43
2022-08-17T18:10:30.237Z,5.13
2022-08-17T18:12:58.773Z,4.60
2022-08-17T18:15:53.495Z,5.00
2022-08-17T18:18:38.288Z,15.77
2022-08-17T18:21:15.631Z,10.65
2022-08-17T18:23:53.601Z,6.85
2022-08-17T18:26:41.820Z,5.18
2022-08-17T18:29:34.305Z,4.50
2022-08-17T18:32:28.620Z,4.72
2022-08-17T18:35:18.611Z,4.95
2022-08-17T18:37:47.495Z,5.05
2022-08-17T18:40:17.676Z,4.82
2022-08-17T18:43:24.668Z,5.53
2022-08-17T18:45:54.856Z,5.53
2022-08-17T18:48:33.138Z,5.60
2022-08-17T18:51:26.370Z,5.50
2022-08-17T18:54:28.149Z,5.35
2022-08-17T18:56:56.502Z,5.50
2022-08-17T18:59:27.091Z,5.22
2022-08-17T19:04:34.569Z,5.93
2022-08-17T19:07:06.858Z,5.37
2022-08-17T19:09:38.583Z,5.50
2022-08-17T19:12:26.914Z,5.50
2022-08-17T19:14:56.826Z,5.60
2022-08-17T19:17:38.042Z,5.53
2022-08-17T19:20:15.853Z,5.93
2022-08-17T19:22:50.011Z,6.07
2022-08-17T19:25:27.659Z,5.80
2022-08-17T19:27:58.130Z,6.38
2022-08-17T19:30:26.178Z,6.03
2022-08-17T19:32:54.510Z,6.13
2022-08-17T19:35:27.127Z,5.88
2022-08-17T19:38:12.986Z,6.30
2022-08-17T19:40:56.032Z,6.95
2022-08-17T19:43:25.972Z,6.20
2022-08-17T19:46:15.255Z,6.35
2022-08-17T19:49:15.251Z,5.93
2022-08-17T19:52:20.551Z,5.97
2022-08-17T19:55:00.558Z,6.03
2022-08-17T19:57:55.266Z,6.37
2022-08-17T20:00:22.695Z,6.00
2022-08-17T20:02:55.222Z,6.47
2022-08-17T20:05:24.044Z,6.00
2022-08-17T20:08:06.273Z,6.80
2022-08-17T20:10:58.618Z,5.88
2022-08-17T20:13:33.138Z,5.68
2022-08-17T20:16:02.265Z,6.53
2022-08-17T20:18:51.947Z,5.93
2022-08-17T20:21:45.323Z,6.35
2022-08-17T20:24:45.846Z,6.30
2022-08-17T20:27:17.812Z,6.20
2022-08-17T20:30:05.831Z,6.30
2022-08-17T20:32:48.895Z,6.45
2022-08-17T20:35:22.629Z,6.85
2022-08-17T20:38:13.052Z,6.13
2022-08-17T20:40:57.486Z,7.03
2022-08-17T20:43:32.981Z,6.88
2022-08-17T20:46:38.382Z,6.78
2022-08-17T20:49:14.921Z,6.28
2022-08-17T20:52:07.823Z,6.72
2022-08-17T20:54:57.229Z,6.60
2022-08-17T20:57:33.380Z,6.20
2022-08-17T21:00:16.590Z,6.40
2022-08-17T21:02:50.635Z,7.00
2022-08-17T21:06:00.712Z,6.60
2022-08-17T21:08:32.590Z,7.50
2022-08-17T21:11:20.800Z,6.75
2022-08-17T21:14:10.499Z,6.70
2022-08-17T21:16:41.387Z,7.10
2022-08-17T21:19:23.142Z,7.70
2022-08-17T21:25:06.354Z,6.50
2022-08-17T21:27:50.195Z,7.22
2022-08-17T21:30:47.722Z,7.50
2022-08-17T21:33:18.817Z,7.15
2022-08-17T21:36:10.256Z,7.35
2022-08-17T21:38:57.772Z,7.25
2022-08-17T21:41:30.238Z,6.90
2022-08-17T21:44:21.640Z,7.10
2022-08-17T21:46:50.815Z,6.65
2022-08-17T21:49:21.282Z,7.10
2022-08-17T21:51:54.331Z,7.22
2022-08-17T21:54:36.988Z,7.22
2022-08-17T21:57:07.075Z,7.57
2022-08-17T21:59:38.174Z,7.13
2022-08-17T22:02:25.366Z,7.38
2022-08-17T22:05:00.096Z,6.40
2022-08-17T22:07:50.908Z,6.68
2022-08-17T22:10:40.994Z,6.57
2022-08-17T22:13:17.324Z,7.05
2022-08-17T22:15:51.178Z,7.07
2022-08-17T22:18:26.918Z,6.75
2022-08-17T22:20:56.628Z,7.22
2022-08-17T22:24:02.362Z,6.15
2022-08-17T22:27:02.588Z,6.68
2022-08-17T22:29:53.242Z,6.03
2022-08-17T22:32:38.565Z,6.50
2022-08-17T22:35:27.046Z,7.30
2022-08-17T22:37:54.182Z,7.18
2022-08-17T22:40:33.389Z,7.20
2022-08-17T22:43:03.614Z,7.32
2022-08-17T22:45:31.269Z,7.55
2022-08-17T22:48:02.180Z,7.80
2022-08-17T22:53:50.088Z,6.72
2022-08-17T22:56:43.250Z,6.75
2022-08-17T22:59:21.108Z,6.82
2022-08-17T23:02:12.635Z,7.53
2022-08-17T23:04:44.079Z,7.63
2022-08-17T23:07:11.373Z,6.68
2022-08-17T23:09:38.962Z,7.40
2022-08-17T23:12:08.832Z,7.28
2022-08-17T23:14:39.292Z,6.85
2022-08-17T23:17:07.539Z,6.82
2022-08-17T23:19:35.394Z,6.53
2022-08-17T23:22:05.271Z,7.20
2022-08-17T23:24:39.352Z,6.72
2022-08-17T23:27:07.676Z,6.97
2022-08-17T23:29:39.313Z,7.57
2022-08-17T23:32:06.972Z,7.07
2022-08-17T23:34:33.950Z,7.30
2022-08-17T23:37:02.327Z,6.80
2022-08-17T23:39:29.415Z,7.18
2022-08-17T23:41:58.884Z,6.85
2022-08-17T23:44:27.111Z,6.78
2022-08-17T23:46:54.670Z,6.72
2022-08-17T23:49:21.738Z,6.47
2022-08-17T23:51:49.508Z,6.70
2022-08-17T23:54:28.311Z,6.32
2022-08-17T23:56:55.435Z,6.20
2022-08-17T23:59:23.393Z,6.70
